Campeche Bay — P3ZF9 — position and weather

sailwx.info

Track history (hours):
 
Tides and Currents Weather Stations Pressure Air Temp Water Temp Dewpoint Dewpoint Depression Visibility Wind Speed Wind Dir Waves Ship Positions

Campeche Bay

Last reported at 2015-Jan-15 19:33 UTC. Time now 2015-Jan-25 14:22 UTC.
Position N 29°28' W 094°51'.
Warning: this ship's position is 9 days out of date.

Length 90 m; draft 3.4 m.

Type: Cargo ship. MMSI: 209641000.

Date/timePositionNaut miles runAvg speedWind from/ knotsBaromVisibWave heightAir tempDewpointWater temp
2015-Jan-15 19:33N 29°28' W 094°51'10 9.9
2015-Jan-15 18:33N 29°36' W 094°57'5 5.4
2015-Jan-15 17:33N 29°41' W 095°00'0 0.0
2015-Jan-15 16:32N 29°41' W 095°00'0 0.0
2015-Jan-15 15:32N 29°41' W 095°00'0 0.0
2015-Jan-15 14:32N 29°41' W 095°00'0 0.0
2015-Jan-15 13:29N 29°41' W 095°00'0 0.4
2015-Jan-15 12:33N 29°41' W 094°60'8 7.8
2015-Jan-15 11:34N 29°34' W 094°55'8 8.0
2015-Jan-15 10:33N 29°27' W 094°51'  
2015-Jan-06 21:33N 29°28' W 094°51'10 9.7
2015-Jan-06 20:33N 29°36' W 094°57'5 5.1
2015-Jan-06 19:33N 29°41' W 094°60'0 0.0
2015-Jan-06 18:33N 29°41' W 094°60'0 0.0
2015-Jan-06 17:33N 29°41' W 094°60'0 0.0
2015-Jan-06 16:33N 29°41' W 094°60'0 0.0
2015-Jan-06 15:33N 29°41' W 094°60'0 0.0
2015-Jan-06 14:33N 29°41' W 094°60'1 1.2
2015-Jan-06 13:33N 29°40' W 094°59'10 9.7
2015-Jan-06 12:33N 29°32' W 094°54'  
Track history (hours):
 
Tides and Currents Weather Stations Pressure Air Temp Water Temp Dewpoint Dewpoint Depression Visibility Wind Speed Wind Dir Waves Ship Positions

Campeche Bay

Last reported at 2015-Jan-15 19:33 UTC. Time now 2015-Jan-25 14:22 UTC.
Position N 29°28' W 094°51'.
Warning: this ship's position is 9 days out of date.

Length 90 m; draft 3.4 m.

Type: Cargo ship. MMSI: 209641000.

Date/timePositionNaut miles runAvg speedWind from/ knotsBaromVisibWave heightAir tempDewpointWater temp
2015-Jan-15 19:33N 29°28' W 094°51'10 9.9
2015-Jan-15 18:33N 29°36' W 094°57'5 5.4
2015-Jan-15 17:33N 29°41' W 095°00'0 0.0
2015-Jan-15 16:32N 29°41' W 095°00'0 0.0
2015-Jan-15 15:32N 29°41' W 095°00'0 0.0
2015-Jan-15 14:32N 29°41' W 095°00'0 0.0
2015-Jan-15 13:29N 29°41' W 095°00'0 0.4
2015-Jan-15 12:33N 29°41' W 094°60'8 7.8
2015-Jan-15 11:34N 29°34' W 094°55'8 8.0
2015-Jan-15 10:33N 29°27' W 094°51'  
2015-Jan-06 21:33N 29°28' W 094°51'10 9.7
2015-Jan-06 20:33N 29°36' W 094°57'5 5.1
2015-Jan-06 19:33N 29°41' W 094°60'0 0.0
2015-Jan-06 18:33N 29°41' W 094°60'0 0.0
2015-Jan-06 17:33N 29°41' W 094°60'0 0.0
2015-Jan-06 16:33N 29°41' W 094°60'0 0.0
2015-Jan-06 15:33N 29°41' W 094°60'0 0.0
2015-Jan-06 14:33N 29°41' W 094°60'1 1.2
2015-Jan-06 13:33N 29°40' W 094°59'10 9.7
2015-Jan-06 12:33N 29°32' W 094°54'  

Dump ship's entire track history